Noack, Texas
Current Conditions -  °F | °C
As of 11:58 PM on Thursday 27 Nov 2014 (Local Time) from KGRK Reporting Station
Clear Clear  
Wind Chill: 38°   Ceiling: Unl
Heat Index: 41°   Visibility: 10mi
Dew Point: 32°   Wind: 6mph
Humidity: 68%   Direction: 170°S
Pressure: 30.36"   Gusts: NA
Location:  30.5793°N, 97.5096°W
Report Text: KGRK 280558Z AUTO 17005KT 10SM CLR 05/00 A3036 RMK AO2 SLP283 T00521002 10115 20038 401540023 57010
Loading
Personal Weather Stations






























Interactive Weather Map New forecast layout! Learn more

10-Day Weather Forecast

Advertisements
Track Severe Weather on mobile